createdAt,value
2019-05-16T00:00:10.353Z,2.77
2019-05-16T00:02:38.795Z,1.92
2019-05-16T00:05:08.452Z,2.25
2019-05-16T00:07:38.896Z,3.30
2019-05-16T00:10:08.385Z,5.10
2019-05-16T00:12:39.577Z,2.40
2019-05-16T00:15:09.101Z,1.98
2019-05-16T00:17:38.603Z,3.60
2019-05-16T00:20:09.489Z,3.15
2019-05-16T00:22:39.399Z,6.33
2019-05-16T00:25:09.537Z,2.85
2019-05-16T00:27:38.607Z,1.87
2019-05-16T00:30:08.981Z,2.80
2019-05-16T00:32:39.062Z,4.87
2019-05-16T00:35:09.183Z,3.52
2019-05-16T00:37:39.108Z,1.95
2019-05-16T00:40:08.841Z,5.03
2019-05-16T00:42:39.147Z,3.02
2019-05-16T00:45:09.269Z,2.45
2019-05-16T00:47:39.010Z,3.17
2019-05-16T00:50:08.822Z,4.67
2019-05-16T00:52:39.366Z,3.70
2019-05-16T00:55:11.799Z,3.62
2019-05-16T00:57:41.170Z,3.35
2019-05-16T01:00:12.573Z,3.08
2019-05-16T01:02:40.973Z,3.45
2019-05-16T01:05:09.552Z,4.47
2019-05-16T01:07:39.271Z,2.87
2019-05-16T01:10:09.335Z,2.72
2019-05-16T01:12:39.141Z,2.92
2019-05-16T01:15:08.738Z,3.50
2019-05-16T01:17:39.100Z,4.72
2019-05-16T01:20:08.518Z,2.87
2019-05-16T01:22:38.590Z,2.90
2019-05-16T01:25:09.534Z,7.03
2019-05-16T01:27:38.761Z,4.20
2019-05-16T01:30:09.040Z,3.05
2019-05-16T01:32:39.152Z,3.77
2019-05-16T01:35:08.664Z,3.40
2019-05-16T01:37:38.351Z,4.20
2019-05-16T01:40:08.357Z,4.08
2019-05-16T01:42:38.548Z,5.40
2019-05-16T01:45:09.425Z,3.27
2019-05-16T01:47:39.266Z,4.15
2019-05-16T01:50:08.856Z,3.22
2019-05-16T01:52:38.349Z,2.95
2019-05-16T01:55:08.475Z,6.53
2019-05-16T01:57:39.067Z,4.35
2019-05-16T02:00:08.746Z,4.25
2019-05-16T02:02:38.570Z,3.83
2019-05-16T02:05:08.666Z,3.67
2019-05-16T02:07:38.788Z,6.42
2019-05-16T02:10:11.051Z,3.37
2019-05-16T02:12:39.499Z,3.75
2019-05-16T02:15:09.353Z,4.05
2019-05-16T02:17:38.648Z,5.65
2019-05-16T02:20:08.646Z,4.42
2019-05-16T02:22:38.906Z,4.20
2019-05-16T02:25:09.828Z,3.85
2019-05-16T02:27:41.124Z,4.30
2019-05-16T02:30:12.373Z,5.25
2019-05-16T02:32:41.627Z,3.98
2019-05-16T02:35:11.788Z,5.03
2019-05-16T02:37:42.264Z,3.75
2019-05-16T02:40:12.390Z,5.05
2019-05-16T02:42:42.149Z,4.12
2019-05-16T02:45:11.487Z,3.35
2019-05-16T02:47:42.431Z,3.40
2019-05-16T02:50:12.206Z,3.77
2019-05-16T02:52:41.464Z,3.45
2019-05-16T02:55:11.902Z,4.72
2019-05-16T02:57:41.746Z,4.60
2019-05-16T03:00:12.346Z,5.87
2019-05-16T03:02:42.163Z,3.40
2019-05-16T03:05:12.239Z,3.87
2019-05-16T03:07:46.804Z,3.98
2019-05-16T03:10:23.288Z,3.83
2019-05-16T03:12:53.972Z,4.08
2019-05-16T03:15:22.380Z,4.17
2019-05-16T03:17:52.618Z,3.40
2019-05-16T03:20:22.637Z,8.60
2019-05-16T03:22:52.004Z,4.17
2019-05-16T03:25:22.225Z,4.15
2019-05-16T03:27:51.335Z,4.67
2019-05-16T03:30:23.777Z,3.45
2019-05-16T03:32:54.836Z,4.67
2019-05-16T03:35:24.535Z,4.78
2019-05-16T03:37:57.119Z,6.20
2019-05-16T03:40:26.486Z,6.60
2019-05-16T03:42:55.190Z,6.28
2019-05-16T03:45:23.614Z,5.40
2019-05-16T03:47:52.122Z,4.00
2019-05-16T03:50:21.790Z,4.45
2019-05-16T03:52:50.975Z,4.72
2019-05-16T03:55:21.444Z,5.20
2019-05-16T03:57:51.577Z,5.42
2019-05-16T04:00:22.849Z,4.75
2019-05-16T04:02:54.008Z,4.10
2019-05-16T04:05:22.433Z,6.42
2019-05-16T04:07:51.590Z,4.30
2019-05-16T04:10:21.700Z,3.95
2019-05-16T04:12:51.316Z,5.12
2019-05-16T04:15:21.498Z,5.20
2019-05-16T04:17:51.298Z,4.95
2019-05-16T04:20:21.517Z,4.00
2019-05-16T04:22:51.293Z,6.03
2019-05-16T04:25:21.667Z,5.80
2019-05-16T04:27:50.376Z,4.58
2019-05-16T04:30:21.831Z,3.70
2019-05-16T04:32:51.036Z,4.67
2019-05-16T04:35:21.451Z,5.62
2019-05-16T04:37:51.320Z,5.15
2019-05-16T04:40:21.955Z,5.05
2019-05-16T04:42:51.292Z,3.98
2019-05-16T04:45:21.071Z,6.58
2019-05-16T04:47:51.122Z,6.20
2019-05-16T04:50:21.238Z,6.67
2019-05-16T04:52:51.833Z,4.47
2019-05-16T04:55:21.071Z,9.03
2019-05-16T04:57:51.135Z,6.17
2019-05-16T05:00:21.136Z,5.80
2019-05-16T05:02:51.896Z,6.05
2019-05-16T05:05:21.467Z,5.05
2019-05-16T05:07:51.103Z,7.45
2019-05-16T05:10:20.687Z,5.65
2019-05-16T05:12:51.579Z,5.78
2019-05-16T05:15:21.513Z,3.72
2019-05-16T05:17:50.343Z,5.17
2019-05-16T05:20:20.986Z,7.05
2019-05-16T05:22:49.988Z,6.50
2019-05-16T05:25:20.408Z,4.78
2019-05-16T05:27:50.080Z,6.15
2019-05-16T05:30:19.788Z,6.70
2019-05-16T05:32:50.241Z,5.72
2019-05-16T05:35:20.578Z,4.87
2019-05-16T05:37:50.938Z,8.28
2019-05-16T05:40:20.111Z,5.85
2019-05-16T05:42:50.494Z,4.65
2019-05-16T05:45:20.110Z,10.78
2019-05-16T05:47:50.499Z,7.80
2019-05-16T05:50:20.185Z,7.00
2019-05-16T05:52:51.185Z,6.97
2019-05-16T05:55:20.131Z,5.37
2019-05-16T05:57:50.649Z,6.03
2019-05-16T06:00:21.018Z,6.85
2019-05-16T06:02:50.810Z,11.85
2019-05-16T06:05:20.228Z,7.83
2019-05-16T06:07:51.012Z,10.10
2019-05-16T06:10:19.928Z,8.10
2019-05-16T06:12:50.028Z,14.07
2019-05-16T06:15:20.355Z,9.43
2019-05-16T06:17:50.918Z,7.72
2019-05-16T06:20:20.347Z,10.00
2019-05-16T06:22:50.919Z,7.35
2019-05-16T06:25:22.699Z,6.17
2019-05-16T06:27:51.196Z,6.83
2019-05-16T06:30:21.389Z,6.80
2019-05-16T06:32:50.232Z,6.20
2019-05-16T06:35:20.259Z,5.85
2019-05-16T06:37:50.055Z,7.22
2019-05-16T06:40:20.258Z,6.92
2019-05-16T06:42:50.971Z,8.75
2019-05-16T06:45:20.571Z,7.03
2019-05-16T06:47:50.346Z,7.33
2019-05-16T06:50:20.801Z,10.50
2019-05-16T06:52:50.208Z,8.20
2019-05-16T06:55:20.534Z,8.48
2019-05-16T06:57:50.339Z,8.28
2019-05-16T07:00:20.958Z,7.55
2019-05-16T07:02:50.154Z,7.37
2019-05-16T07:05:20.796Z,8.33
2019-05-16T07:07:50.869Z,9.63
2019-05-16T07:10:20.337Z,9.25
2019-05-16T07:12:50.354Z,12.37
2019-05-16T07:15:20.636Z,9.98
2019-05-16T07:17:50.678Z,8.58
2019-05-16T07:20:20.988Z,32.63
2019-05-16T07:22:50.405Z,7.92
2019-05-16T07:25:20.801Z,10.48
2019-05-16T07:27:51.103Z,10.38
2019-05-16T07:30:19.998Z,15.18
2019-05-16T07:32:50.005Z,7.62
2019-05-16T07:35:20.494Z,9.60
2019-05-16T07:37:49.968Z,9.45
2019-05-16T07:40:23.745Z,8.45
2019-05-16T07:42:50.974Z,9.08
2019-05-16T07:45:20.428Z,10.38
2019-05-16T07:47:50.888Z,10.55
2019-05-16T07:50:20.159Z,11.15
2019-05-16T07:52:51.190Z,12.70
2019-05-16T07:55:20.799Z,10.72
2019-05-16T07:57:50.654Z,10.80
2019-05-16T08:00:21.604Z,8.40
2019-05-16T08:02:50.606Z,12.90
2019-05-16T08:05:21.115Z,10.18
2019-05-16T08:07:51.141Z,9.38
2019-05-16T08:10:37.095Z,9.70
2019-05-16T08:12:51.274Z,6.28
2019-05-16T08:15:21.416Z,8.03
2019-05-16T08:20:21.381Z,8.73
2019-05-16T08:22:50.876Z,7.85
2019-05-16T08:25:20.500Z,8.20
2019-05-16T08:27:51.907Z,7.35
2019-05-16T08:30:21.048Z,13.62
2019-05-16T08:32:52.871Z,6.97
2019-05-16T08:35:21.071Z,11.63
2019-05-16T08:45:22.016Z,9.03
2019-05-16T08:47:52.631Z,7.45
2019-05-16T08:50:05.380Z,11.20
2019-05-16T08:50:05.527Z,8.13
2019-05-16T08:50:05.719Z,8.33
2019-05-16T08:50:21.888Z,8.48
2019-05-16T08:52:52.877Z,7.20
2019-05-16T08:55:21.805Z,8.18
2019-05-16T08:57:52.922Z,8.13
2019-05-16T09:00:21.894Z,7.03
2019-05-16T09:02:52.530Z,7.08
2019-05-16T09:05:22.732Z,10.28
2019-05-16T09:07:59.846Z,7.35
2019-05-16T09:10:29.681Z,7.80
2019-05-16T09:12:51.862Z,11.22
2019-05-16T09:15:21.030Z,8.03
2019-05-16T09:17:49.569Z,8.35
2019-05-16T09:20:18.331Z,10.93
2019-05-16T09:22:48.079Z,6.85
2019-05-16T09:25:18.528Z,7.00
2019-05-16T09:27:47.589Z,9.60
2019-05-16T09:30:17.547Z,8.50
2019-05-16T09:32:48.013Z,5.03
2019-05-16T09:35:17.298Z,5.65
2019-05-16T09:37:47.311Z,5.75
2019-05-16T09:40:18.065Z,5.28
2019-05-16T09:42:47.483Z,6.20
2019-05-16T09:45:17.227Z,9.43
2019-05-16T09:47:48.446Z,5.62
2019-05-16T09:50:17.453Z,11.45
2019-05-16T09:52:47.260Z,6.87
2019-05-16T09:55:17.833Z,7.03
2019-05-16T09:57:46.981Z,6.47
2019-05-16T10:00:26.901Z,6.15
2019-05-16T10:02:54.745Z,7.83
2019-05-16T10:05:26.402Z,5.50
2019-05-16T10:07:54.013Z,6.87
2019-05-16T10:10:22.766Z,5.35
2019-05-16T10:12:51.250Z,3.85
2019-05-16T10:15:20.225Z,6.10
2019-05-16T10:17:48.705Z,6.65
2019-05-16T10:20:17.504Z,4.67
2019-05-16T10:22:50.566Z,6.28
2019-05-16T10:25:19.557Z,6.60
2019-05-16T10:27:48.398Z,6.55
2019-05-16T10:30:19.963Z,7.05
2019-05-16T10:32:48.465Z,7.00
2019-05-16T10:35:17.263Z,7.72
2019-05-16T10:37:47.057Z,6.10
2019-05-16T10:40:18.190Z,6.47
2019-05-16T10:42:47.197Z,7.90
2019-05-16T10:45:16.661Z,6.37
2019-05-16T10:47:47.849Z,8.28
2019-05-16T10:50:16.615Z,6.60
2019-05-16T10:52:47.514Z,5.62
2019-05-16T10:55:17.700Z,4.53
2019-05-16T10:57:47.485Z,6.70
2019-05-16T11:00:39.639Z,5.28
2019-05-16T11:02:47.765Z,5.62
2019-05-16T11:05:27.050Z,6.80
2019-05-16T11:07:48.631Z,5.75
2019-05-16T11:10:17.037Z,5.97
2019-05-16T11:12:50.971Z,9.88
2019-05-16T11:15:17.218Z,6.28
2019-05-16T11:17:46.044Z,6.37
2019-05-16T11:20:19.664Z,9.60
2019-05-16T11:22:47.730Z,6.47
2019-05-16T11:25:25.075Z,9.05
2019-05-16T11:27:46.976Z,5.40
2019-05-16T11:30:18.246Z,4.97
2019-05-16T11:32:48.171Z,6.28
2019-05-16T11:35:17.370Z,4.35
2019-05-16T11:37:47.272Z,4.47
2019-05-16T11:40:17.743Z,6.15
2019-05-16T11:42:48.713Z,6.67
2019-05-16T11:45:16.912Z,5.08
2019-05-16T11:47:47.104Z,7.50
2019-05-16T11:50:17.578Z,5.33
2019-05-16T11:52:47.659Z,7.67
2019-05-16T11:55:16.589Z,8.65
2019-05-16T11:57:47.365Z,5.55
2019-05-16T12:00:17.812Z,6.17
2019-05-16T12:02:47.824Z,7.03
2019-05-16T12:05:17.213Z,4.75
2019-05-16T12:07:48.417Z,4.40
2019-05-16T12:10:17.266Z,8.03
2019-05-16T12:12:45.715Z,3.42
2019-05-16T12:15:17.515Z,6.45
2019-05-16T12:17:59.151Z,5.95
2019-05-16T12:20:16.646Z,8.88
2019-05-16T12:22:45.287Z,3.98
2019-05-16T12:25:16.557Z,4.28
2019-05-16T12:27:44.516Z,9.38
2019-05-16T12:30:14.136Z,9.45
2019-05-16T12:32:42.685Z,5.65
2019-05-16T12:35:11.544Z,4.97
2019-05-16T12:37:39.985Z,5.65
2019-05-16T12:40:08.947Z,6.08
2019-05-16T12:42:37.402Z,6.05
2019-05-16T12:45:09.062Z,8.78
2019-05-16T12:47:37.851Z,5.55
2019-05-16T12:50:11.588Z,4.87
2019-05-16T12:52:40.373Z,4.65
2019-05-16T12:55:09.357Z,6.33
2019-05-16T12:57:38.506Z,6.87
2019-05-16T13:00:15.127Z,5.67
2019-05-16T13:02:39.143Z,8.60
2019-05-16T13:05:07.913Z,5.35
2019-05-16T13:07:37.677Z,6.25
2019-05-16T13:10:07.110Z,4.35
2019-05-16T13:12:37.750Z,5.45
2019-05-16T13:15:07.157Z,5.15
2019-05-16T13:17:37.219Z,9.20
2019-05-16T13:20:07.959Z,8.03
2019-05-16T13:22:38.536Z,5.87
2019-05-16T13:25:08.246Z,6.47
2019-05-16T13:27:37.531Z,5.08
2019-05-16T13:30:10.426Z,4.20
2019-05-16T13:32:38.986Z,4.80
2019-05-16T13:35:07.999Z,5.12
2019-05-16T13:37:36.520Z,4.97
2019-05-16T13:40:08.124Z,4.97
2019-05-16T13:42:37.153Z,3.90
2019-05-16T13:45:09.280Z,6.10
2019-05-16T13:47:37.976Z,4.30
2019-05-16T13:50:12.210Z,6.37
2019-05-16T13:52:38.528Z,5.50
2019-05-16T13:55:08.925Z,8.48
2019-05-16T13:57:37.725Z,5.10
2019-05-16T14:00:08.775Z,4.28
2019-05-16T14:02:38.045Z,6.87
2019-05-16T14:05:07.892Z,3.83
2019-05-16T14:07:37.422Z,3.52
2019-05-16T14:10:09.646Z,6.35
2019-05-16T14:12:38.195Z,6.67
2019-05-16T14:15:09.489Z,66.60
2019-05-16T14:17:38.158Z,54.35
2019-05-16T14:20:14.580Z,58.60
2019-05-16T14:22:40.399Z,9.50
2019-05-16T14:25:09.656Z,6.30
2019-05-16T14:27:38.520Z,4.75
2019-05-16T14:30:11.173Z,4.55
2019-05-16T14:32:42.943Z,5.78
2019-05-16T14:35:10.368Z,3.67
2019-05-16T14:37:38.789Z,3.62
2019-05-16T14:40:08.509Z,4.35
2019-05-16T14:42:38.590Z,5.90
2019-05-16T14:45:12.799Z,5.47
2019-05-16T14:47:39.974Z,4.30
2019-05-16T14:50:12.959Z,4.08
2019-05-16T14:52:38.937Z,5.20
2019-05-16T14:55:07.556Z,4.15
2019-05-16T14:57:36.857Z,3.90
2019-05-16T15:00:08.026Z,5.00
2019-05-16T15:02:38.175Z,6.17
2019-05-16T15:05:08.064Z,5.37
2019-05-16T15:07:37.620Z,4.87
2019-05-16T15:10:09.572Z,4.10
2019-05-16T15:12:38.017Z,4.42
2019-05-16T15:15:19.371Z,2.45
2019-05-16T15:20:11.409Z,4.58
2019-05-16T15:22:39.920Z,5.33
2019-05-16T15:25:08.566Z,3.12
2019-05-16T15:27:37.541Z,3.80
2019-05-16T15:30:08.404Z,5.45
2019-05-16T15:32:38.534Z,4.50
2019-05-16T15:35:07.720Z,3.40
2019-05-16T15:37:37.203Z,3.65
2019-05-16T15:40:09.612Z,3.92
2019-05-16T15:42:38.063Z,2.77
2019-05-16T15:45:08.598Z,3.20
2019-05-16T15:47:37.833Z,4.22
2019-05-16T15:50:11.284Z,3.47
2019-05-16T15:52:39.769Z,2.72
2019-05-16T15:55:10.073Z,3.58
2019-05-16T15:57:38.792Z,2.95
2019-05-16T16:00:10.453Z,3.08
2019-05-16T16:02:39.358Z,4.10
2019-05-16T16:05:09.322Z,3.12
2019-05-16T16:07:38.163Z,2.83
2019-05-16T16:10:07.889Z,4.03
2019-05-16T16:12:37.671Z,5.85
2019-05-16T16:15:07.958Z,4.83
2019-05-16T16:17:38.005Z,2.77
2019-05-16T16:20:10.478Z,5.00
2019-05-16T16:22:38.207Z,4.53
2019-05-16T16:25:07.328Z,5.45
2019-05-16T16:27:36.024Z,6.72
2019-05-16T16:30:07.070Z,7.03
2019-05-16T16:32:37.923Z,4.62
2019-05-16T16:35:08.001Z,5.80
2019-05-16T16:37:37.710Z,5.97
2019-05-16T16:40:10.836Z,7.15
2019-05-16T16:42:37.494Z,7.70
2019-05-16T16:45:09.672Z,6.97
2019-05-16T16:47:38.196Z,5.67
2019-05-16T16:50:08.105Z,4.03
2019-05-16T16:52:37.776Z,2.58
2019-05-16T16:55:10.291Z,3.08
2019-05-16T16:57:38.802Z,2.60
2019-05-16T17:00:09.223Z,2.37
2019-05-16T17:02:37.824Z,3.42
2019-05-16T17:05:11.898Z,3.80
2019-05-16T17:07:37.669Z,4.67
2019-05-16T17:10:08.133Z,4.33
2019-05-16T17:12:41.663Z,2.85
2019-05-16T17:15:08.756Z,3.02
2019-05-16T17:17:37.958Z,3.77
2019-05-16T17:20:07.957Z,16.65
2019-05-16T17:22:37.643Z,8.98
2019-05-16T17:25:08.360Z,5.33
2019-05-16T17:27:37.557Z,9.13
2019-05-16T17:30:16.907Z,2.77
2019-05-16T17:32:45.150Z,11.55
2019-05-16T17:35:18.550Z,17.90
2019-05-16T17:37:46.826Z,6.85
2019-05-16T17:40:17.553Z,5.60
2019-05-16T17:42:47.682Z,4.83
2019-05-16T17:45:18.105Z,4.00
2019-05-16T17:47:47.015Z,5.60
2019-05-16T17:50:17.226Z,4.95
2019-05-16T17:52:47.701Z,5.80
2019-05-16T17:55:18.449Z,5.42
2019-05-16T17:57:47.238Z,3.52
2019-05-16T18:00:25.328Z,3.55
2019-05-16T18:02:47.116Z,3.20
2019-05-16T18:05:17.082Z,3.12
2019-05-16T18:07:47.439Z,5.05
2019-05-16T18:10:18.138Z,4.15
2019-05-16T18:12:48.080Z,4.62
2019-05-16T18:15:22.928Z,6.83
2019-05-16T18:17:51.453Z,4.95
2019-05-16T18:20:22.293Z,5.33
2019-05-16T18:22:50.552Z,3.85
2019-05-16T18:25:19.205Z,3.87
2019-05-16T18:27:47.697Z,3.35
2019-05-16T18:30:16.924Z,5.03
2019-05-16T18:32:45.339Z,4.53
2019-05-16T18:35:16.545Z,3.45
2019-05-16T18:37:46.330Z,3.77
2019-05-16T18:40:16.614Z,3.90
2019-05-16T18:42:47.599Z,4.17
2019-05-16T18:45:16.539Z,2.10
2019-05-16T18:47:47.048Z,3.98
2019-05-16T18:50:18.005Z,2.95
2019-05-16T18:52:47.221Z,4.20
2019-05-16T18:55:17.358Z,3.83
2019-05-16T18:57:47.212Z,5.08
2019-05-16T19:00:18.023Z,2.90
2019-05-16T19:02:47.838Z,3.67
2019-05-16T19:05:17.365Z,2.65
2019-05-16T19:07:47.556Z,5.12
2019-05-16T19:10:17.638Z,5.10
2019-05-16T19:12:47.821Z,3.25
2019-05-16T19:15:17.801Z,4.22
2019-05-16T19:17:48.172Z,2.98
2019-05-16T19:20:17.392Z,4.25
2019-05-16T19:22:45.947Z,3.87
2019-05-16T19:25:15.226Z,4.78
2019-05-16T19:27:46.326Z,4.42
2019-05-16T19:30:16.548Z,4.40
2019-05-16T19:32:46.902Z,3.30
2019-05-16T19:35:16.444Z,3.15
2019-05-16T19:37:47.031Z,3.90
2019-05-16T19:40:17.161Z,3.45
2019-05-16T19:42:47.170Z,3.15
2019-05-16T19:45:17.065Z,3.02
2019-05-16T19:47:46.973Z,2.20
2019-05-16T19:50:16.236Z,3.47
2019-05-16T19:52:47.013Z,2.67
2019-05-16T19:55:15.085Z,3.58
2019-05-16T19:57:43.487Z,2.77
2019-05-16T20:00:12.672Z,3.90
2019-05-16T20:02:41.103Z,2.75
2019-05-16T20:05:10.106Z,3.12
2019-05-16T20:07:38.630Z,6.03
2019-05-16T20:10:09.489Z,8.08
2019-05-16T20:12:37.870Z,8.00
2019-05-16T20:15:11.388Z,12.50
2019-05-16T20:17:51.021Z,9.83
2019-05-16T20:20:09.980Z,12.80
2019-05-16T20:22:38.432Z,6.72
2019-05-16T20:25:07.398Z,5.35
2019-05-16T20:27:36.808Z,7.40
2019-05-16T20:30:07.768Z,4.83
2019-05-16T20:32:37.190Z,7.78
2019-05-16T20:35:08.983Z,5.55
2019-05-16T20:37:37.238Z,5.78
2019-05-16T20:40:10.846Z,8.18
2019-05-16T20:42:38.876Z,7.12
2019-05-16T20:45:08.844Z,8.13
2019-05-16T20:47:37.285Z,12.55
2019-05-16T20:50:08.040Z,11.90
2019-05-16T20:52:37.770Z,8.73
2019-05-16T20:55:07.685Z,8.80
2019-05-16T20:57:37.613Z,14.63
2019-05-16T21:00:07.865Z,10.00
2019-05-16T21:02:37.840Z,19.15
2019-05-16T21:05:07.482Z,26.97
2019-05-16T21:07:37.544Z,9.18
2019-05-16T21:10:08.168Z,6.35
2019-05-16T21:12:40.172Z,8.40
2019-05-16T21:15:07.943Z,10.10
2019-05-16T21:17:36.448Z,7.28
2019-05-16T21:20:07.417Z,6.62
2019-05-16T21:22:37.062Z,6.45
2019-05-16T21:25:06.331Z,9.53
2019-05-16T21:27:37.558Z,7.12
2019-05-16T21:30:07.826Z,5.45
2019-05-16T21:32:36.782Z,12.98
2019-05-16T21:35:07.278Z,13.08
2019-05-16T21:37:37.424Z,7.83
2019-05-16T21:40:09.294Z,11.20
2019-05-16T21:42:37.788Z,9.58
2019-05-16T21:45:09.524Z,11.93
2019-05-16T21:47:37.958Z,9.05
2019-05-16T21:50:08.339Z,10.45
2019-05-16T21:52:36.866Z,12.15
2019-05-16T21:55:09.397Z,10.63
2019-05-16T21:57:38.036Z,13.90
2019-05-16T22:00:16.754Z,16.57
2019-05-16T22:02:46.699Z,8.95
2019-05-16T22:05:17.135Z,11.33
2019-05-16T22:07:47.405Z,12.50
2019-05-16T22:10:16.366Z,11.12
2019-05-16T22:12:47.470Z,13.30
2019-05-16T22:15:17.108Z,10.40
2019-05-16T22:17:47.177Z,10.78
2019-05-16T22:20:16.564Z,13.83
2019-05-16T22:22:46.960Z,8.85
2019-05-16T22:25:16.754Z,9.65
2019-05-16T22:27:48.326Z,9.43
2019-05-16T22:30:17.404Z,10.40
2019-05-16T22:32:47.175Z,11.12
2019-05-16T22:35:17.708Z,10.58
2019-05-16T22:37:55.194Z,13.03
2019-05-16T22:40:18.128Z,8.68
2019-05-16T22:42:46.961Z,11.25
2019-05-16T22:45:17.757Z,12.05
2019-05-16T22:47:46.754Z,10.03
2019-05-16T22:50:17.599Z,11.90
2019-05-16T22:52:46.494Z,11.90
2019-05-16T22:55:18.898Z,11.73
2019-05-16T22:57:49.307Z,13.48
2019-05-16T23:00:22.709Z,11.33
2019-05-16T23:02:51.281Z,11.22
2019-05-16T23:05:19.725Z,11.30
2019-05-16T23:08:01.798Z,12.75
2019-05-16T23:10:18.397Z,11.88
2019-05-16T23:12:46.837Z,11.85
2019-05-16T23:15:17.095Z,10.68
2019-05-16T23:17:46.555Z,13.08
2019-05-16T23:20:17.068Z,14.43
2019-05-16T23:22:46.983Z,15.95
2019-05-16T23:25:17.086Z,15.45
2019-05-16T23:27:47.405Z,15.63
2019-05-16T23:30:16.640Z,19.98
2019-05-16T23:32:46.990Z,21.20
2019-05-16T23:35:15.388Z,15.53
2019-05-16T23:37:46.224Z,11.48
2019-05-16T23:40:14.585Z,12.15
2019-05-16T23:42:43.121Z,9.98
2019-05-16T23:45:12.191Z,13.78
2019-05-16T23:47:40.712Z,12.18
2019-05-16T23:50:09.909Z,12.47
2019-05-16T23:52:38.321Z,10.40
2019-05-16T23:55:08.399Z,12.68
2019-05-16T23:57:37.547Z,10.58
